Charlotteville, NY (12036)

10:46 AM EST on February 06, 2016 (GMT -0500)
Charlotte Valley | | Change Station
CLOSE
Current Station
Personal Weather Station
Location: Charlotteville, NY
Elevation: 1430 ft
Nearby Weather Stations

Elev 1430 ft 42.52 °N, 74.72 °W | Updated 3 minutes ago

Overcast
Overcast
33.6 °F
Feels Like 26 °F
N
9.4
Wind Variable Wind from SW

Today
High -- | Low -- °F
--% Chance of Precip.
Yesterday
High -- | Low -- °F
Precip. -- in
Pressure 30.34 in
Visibility 10.0 miles
Clouds Mostly Cloudy 6000 ft
Windchill 26 °F
Dew Point 22 °F
Humidity 61%
Rainfall 0.00 in
Snow Depth Not available.
7:07 AM 5:18 PM
Waning Crescent, 5% visible
METAR KSCH 061449Z 17005KT 10SM BKN060 01/M07 A3034
Pressure 30.34 in
Visibility 10.0 miles
Clouds Mostly Cloudy 6000 ft
Windchill 26 °F
Dew Point 22 °F
Humidity 61%
Rainfall 0.00 in
Snow Depth Not available.
7:07 AM 5:18 PM
Waning Crescent, 5% visible
METAR KSCH 061449Z 17005KT 10SM BKN060 01/M07 A3034

10-Day Weather Forecast

Almanac

Astronomy

Feb. 06, 2016 Rise Set
Actual Time
Civil Twilight
Nautical Twilight
Astronomical Twilight
Moon
Length of Visible Light
Length of Day
Tomorrow will be .
, % of the Moon is Illuminated

Today's Extremes

State Highs State Lows

Community

WunderPhotos

Upload Photos

1,890,987 photos uploaded!

WunderBlog® & News

Nearby

Air Quality

  Air Quality AQ Index Pollutant
Not available.

Snow Depth

Station Depth Elevation

Earthquake Activity

City Distance Mag. Time & Date
Minimum magnitude displayed is 2.5.

Coastal Water Temperatures

Place Temperature

Stations

Nearby Weather Stations

Station Location Temp. Windchill Dew Point Humidity Wind Precip. Elev Updated Type
                   

Watches & Warnings

There are currently no watches in effect.